createdAt,value
2023-05-09T00:01:13.513Z,6.36
2023-05-09T00:03:43.128Z,6.27
2023-05-09T00:06:11.452Z,6.21
2023-05-09T00:08:38.588Z,6.15
2023-05-09T00:11:06.008Z,6.10
2023-05-09T00:13:34.679Z,6.12
2023-05-09T00:16:01.804Z,6.08
2023-05-09T00:18:31.139Z,6.04
2023-05-09T00:20:58.442Z,5.99
2023-05-09T00:23:25.674Z,5.99
2023-05-09T00:25:53.113Z,5.97
2023-05-09T00:28:20.494Z,5.94
2023-05-09T00:30:47.565Z,5.91
2023-05-09T00:33:15.193Z,5.84
2023-05-09T00:35:42.313Z,5.81
2023-05-09T00:38:09.536Z,5.82
2023-05-09T00:40:36.890Z,5.76
2023-05-09T00:43:04.806Z,5.76
2023-05-09T00:45:31.913Z,5.67
2023-05-09T00:48:01.383Z,5.68
2023-05-09T00:50:28.743Z,5.60
2023-05-09T00:52:56.063Z,5.55
2023-05-09T00:55:23.697Z,5.51
2023-05-09T00:57:50.811Z,5.46
2023-05-09T01:00:18.256Z,5.47
2023-05-09T01:02:49.374Z,5.45
2023-05-09T01:05:17.002Z,5.41
2023-05-09T01:08:13.547Z,5.44
2023-05-09T01:10:49.128Z,5.48
2023-05-09T01:13:24.902Z,5.60
2023-05-09T01:16:01.430Z,5.62
2023-05-09T01:18:51.115Z,5.60
2023-05-09T01:21:24.444Z,5.49
2023-05-09T01:24:00.714Z,5.52
2023-05-09T01:26:58.749Z,5.48
2023-05-09T01:29:58.239Z,5.40
2023-05-09T01:32:28.398Z,5.30
2023-05-09T01:34:56.675Z,5.28
2023-05-09T01:37:34.292Z,5.22
2023-05-09T01:40:09.914Z,5.17
2023-05-09T01:42:43.874Z,5.17
2023-05-09T01:45:12.806Z,5.19
2023-05-09T01:47:40.829Z,5.07
2023-05-09T01:50:09.615Z,5.07
2023-05-09T01:52:37.913Z,5.10
2023-05-09T01:55:06.900Z,5.05
2023-05-09T01:57:35.422Z,4.98
2023-05-09T02:00:03.539Z,4.92
2023-05-09T02:02:41.033Z,4.90
2023-05-09T02:05:11.291Z,4.83
2023-05-09T02:07:38.923Z,4.79
2023-05-09T02:10:07.935Z,4.74
2023-05-09T02:12:38.274Z,4.69
2023-05-09T02:15:06.513Z,4.71
2023-05-09T02:17:33.736Z,4.74
2023-05-09T02:20:01.042Z,4.73
2023-05-09T02:22:28.245Z,4.67
2023-05-09T02:24:55.352Z,4.63
2023-05-09T02:27:22.815Z,4.58
2023-05-09T02:29:51.908Z,4.53
2023-05-09T02:32:29.903Z,4.57
2023-05-09T02:34:58.507Z,4.52
2023-05-09T02:37:26.015Z,4.49
2023-05-09T02:39:53.070Z,4.46
2023-05-09T02:42:22.775Z,4.53
2023-05-09T02:44:49.759Z,4.52
2023-05-09T02:47:16.780Z,4.55
2023-05-09T02:49:44.792Z,4.54
2023-05-09T02:52:12.312Z,4.49
2023-05-09T02:54:39.368Z,4.46
2023-05-09T02:57:06.867Z,4.49
2023-05-09T02:59:33.923Z,4.47
2023-05-09T03:02:01.604Z,4.41
2023-05-09T03:04:29.180Z,4.49
2023-05-09T03:06:56.398Z,4.41
2023-05-09T03:09:24.659Z,4.46
2023-05-09T03:11:51.933Z,4.50
2023-05-09T03:14:18.947Z,4.51
2023-05-09T03:16:45.994Z,4.54
2023-05-09T03:19:14.525Z,4.59
2023-05-09T03:21:41.865Z,4.58
2023-05-09T03:24:10.590Z,4.59
2023-05-09T03:26:37.900Z,4.57
2023-05-09T03:29:04.977Z,4.53
2023-05-09T03:31:32.196Z,4.59
2023-05-09T03:33:59.577Z,4.63
2023-05-09T03:36:27.465Z,4.69
2023-05-09T03:38:54.971Z,4.83
2023-05-09T03:41:22.777Z,4.98
2023-05-09T03:43:50.279Z,5.15
2023-05-09T03:46:17.386Z,5.25
2023-05-09T03:48:45.382Z,5.29
2023-05-09T03:51:12.398Z,5.34
2023-05-09T03:53:39.811Z,5.44
2023-05-09T03:56:07.953Z,5.63
2023-05-09T03:58:37.688Z,5.74
2023-05-09T04:01:04.763Z,5.88
2023-05-09T04:03:32.524Z,6.01
2023-05-09T04:05:59.956Z,6.06
2023-05-09T04:08:27.524Z,6.12
2023-05-09T04:10:54.882Z,6.24
2023-05-09T04:13:23.100Z,6.34
2023-05-09T04:15:50.995Z,6.42
2023-05-09T04:18:18.360Z,6.48
2023-05-09T04:20:45.527Z,6.63
2023-05-09T04:23:12.970Z,6.70
2023-05-09T04:25:40.500Z,6.78
2023-05-09T04:28:08.345Z,6.88
2023-05-09T04:30:37.162Z,6.97
2023-05-09T04:33:04.616Z,7.04
2023-05-09T04:35:32.545Z,7.14
2023-05-09T04:37:59.864Z,7.31
2023-05-09T04:40:27.325Z,7.34
2023-05-09T04:42:54.851Z,7.49
2023-05-09T04:45:22.645Z,7.59
2023-05-09T04:47:50.033Z,7.68
2023-05-09T04:50:17.531Z,7.79
2023-05-09T04:52:44.585Z,7.89
2023-05-09T04:55:12.346Z,7.81
2023-05-09T04:57:40.385Z,7.86
2023-05-09T05:00:11.470Z,7.90
2023-05-09T05:02:39.311Z,8.08
2023-05-09T05:05:12.165Z,8.12
2023-05-09T05:07:40.540Z,8.35
2023-05-09T05:10:08.698Z,8.23
2023-05-09T05:12:36.376Z,8.23
2023-05-09T05:15:07.730Z,8.23
2023-05-09T05:17:35.082Z,8.13
2023-05-09T05:20:03.184Z,8.07
2023-05-09T05:22:32.705Z,8.01
2023-05-09T05:25:00.005Z,7.95
2023-05-09T05:27:27.257Z,8.14
2023-05-09T05:29:54.825Z,8.23
2023-05-09T05:32:22.133Z,8.35
2023-05-09T05:34:49.364Z,8.61
2023-05-09T05:37:16.911Z,8.72
2023-05-09T05:39:44.033Z,8.55
2023-05-09T05:42:11.465Z,8.78
2023-05-09T05:44:40.965Z,8.92
2023-05-09T05:47:08.048Z,9.06
2023-05-09T05:49:35.083Z,9.02
2023-05-09T05:52:02.376Z,9.16
2023-05-09T05:54:29.754Z,9.18
2023-05-09T05:56:56.842Z,9.21
2023-05-09T05:59:24.165Z,9.33
2023-05-09T06:01:51.466Z,9.44
2023-05-09T06:04:18.941Z,9.51
2023-05-09T06:06:46.975Z,9.64
2023-05-09T06:09:15.157Z,9.69
2023-05-09T06:11:42.747Z,9.76
2023-05-09T06:14:09.764Z,9.94
2023-05-09T06:16:36.794Z,10.00
2023-05-09T06:19:04.686Z,10.07
2023-05-09T06:21:32.116Z,9.96
2023-05-09T06:24:08.479Z,9.91
2023-05-09T06:26:37.730Z,10.08
2023-05-09T06:29:06.352Z,10.42
2023-05-09T06:31:38.421Z,10.26
2023-05-09T06:34:06.126Z,10.28
2023-05-09T06:36:35.033Z,10.37
2023-05-09T06:39:02.160Z,10.50
2023-05-09T06:41:29.528Z,10.36
2023-05-09T06:43:56.626Z,10.51
2023-05-09T06:46:23.722Z,10.62
2023-05-09T06:48:51.197Z,10.72
2023-05-09T06:51:18.279Z,10.74
2023-05-09T06:53:45.449Z,11.04
2023-05-09T06:56:12.890Z,11.27
2023-05-09T06:58:39.996Z,11.29
2023-05-09T07:01:07.157Z,11.31
2023-05-09T07:03:34.561Z,11.31
2023-05-09T07:06:01.787Z,11.22
2023-05-09T07:08:28.975Z,11.41
2023-05-09T07:10:56.316Z,11.41
2023-05-09T07:13:23.431Z,11.75
2023-05-09T07:15:50.716Z,11.95
2023-05-09T07:18:18.207Z,12.04
2023-05-09T07:20:45.350Z,12.35
2023-05-09T07:23:12.496Z,12.30
2023-05-09T07:25:40.032Z,12.43
2023-05-09T07:28:07.104Z,12.65
2023-05-09T07:30:34.223Z,12.65
2023-05-09T07:33:01.964Z,12.67
2023-05-09T07:35:29.819Z,12.82
2023-05-09T07:37:56.833Z,12.80
2023-05-09T07:40:24.461Z,13.05
2023-05-09T07:42:53.490Z,13.20
2023-05-09T07:45:23.500Z,13.23
2023-05-09T07:47:51.322Z,13.47
2023-05-09T07:50:18.470Z,13.25
2023-05-09T07:52:45.752Z,13.21
2023-05-09T07:55:13.173Z,13.24
2023-05-09T07:57:40.333Z,13.20
2023-05-09T08:00:08.905Z,13.35
2023-05-09T08:02:40.580Z,13.29
2023-05-09T08:05:11.348Z,13.09
2023-05-09T08:07:38.709Z,13.17
2023-05-09T08:10:06.868Z,13.28
2023-05-09T08:12:34.782Z,13.25
2023-05-09T08:15:02.651Z,13.45
2023-05-09T08:17:29.891Z,13.42
2023-05-09T08:19:57.191Z,13.48
2023-05-09T08:22:24.767Z,13.46
2023-05-09T08:24:52.844Z,13.36
2023-05-09T08:27:20.095Z,13.38
2023-05-09T08:29:47.116Z,13.52
2023-05-09T08:32:14.426Z,13.47
2023-05-09T08:34:41.725Z,13.60
2023-05-09T08:37:08.686Z,13.84
2023-05-09T08:39:35.954Z,13.96
2023-05-09T08:42:04.387Z,14.08
2023-05-09T08:44:32.112Z,14.23
2023-05-09T08:47:03.363Z,14.30
2023-05-09T08:49:30.964Z,14.40
2023-05-09T08:51:59.109Z,14.59
2023-05-09T08:54:26.406Z,14.48
2023-05-09T08:56:54.168Z,14.44
2023-05-09T08:59:21.403Z,14.67
2023-05-09T09:01:48.795Z,14.84
2023-05-09T09:04:16.220Z,14.73
2023-05-09T09:06:43.684Z,14.62
2023-05-09T09:09:11.791Z,14.87
2023-05-09T09:11:40.590Z,15.03
2023-05-09T09:14:27.637Z,14.92
2023-05-09T09:16:56.219Z,14.75
2023-05-09T09:19:27.924Z,14.89
2023-05-09T09:21:57.884Z,15.07
2023-05-09T09:24:25.106Z,15.01
2023-05-09T09:26:52.729Z,14.84
2023-05-09T09:29:23.639Z,14.92
2023-05-09T09:31:55.307Z,15.17
2023-05-09T09:34:23.720Z,15.08
2023-05-09T09:36:51.872Z,15.26
2023-05-09T09:39:19.350Z,15.40
2023-05-09T09:41:46.651Z,15.49
2023-05-09T09:44:16.186Z,15.67
2023-05-09T09:46:43.705Z,15.66
2023-05-09T09:49:12.886Z,15.46
2023-05-09T09:51:40.793Z,15.79
2023-05-09T09:54:09.321Z,16.14
2023-05-09T09:56:50.371Z,16.22
2023-05-09T09:59:19.371Z,15.64
2023-05-09T10:02:07.594Z,15.34
2023-05-09T10:04:41.663Z,15.15
2023-05-09T10:07:12.833Z,15.24
2023-05-09T10:09:43.812Z,15.52
2023-05-09T10:12:11.431Z,15.67
2023-05-09T10:14:38.695Z,15.73
2023-05-09T10:17:06.927Z,16.04
2023-05-09T10:19:36.061Z,16.07
2023-05-09T10:22:08.707Z,15.57
2023-05-09T10:24:48.330Z,15.53
2023-05-09T10:27:19.624Z,15.72
2023-05-09T10:29:51.335Z,15.57
2023-05-09T10:32:24.202Z,15.88
2023-05-09T10:34:54.878Z,15.69
2023-05-09T10:37:22.223Z,15.81
2023-05-09T10:39:53.537Z,15.95
2023-05-09T10:42:21.763Z,15.64
2023-05-09T10:44:49.597Z,15.74
2023-05-09T10:47:17.769Z,15.47
2023-05-09T10:49:45.618Z,15.21
2023-05-09T10:52:12.978Z,14.91
2023-05-09T10:54:40.219Z,15.02
2023-05-09T10:57:10.958Z,15.34
2023-05-09T10:59:38.048Z,16.15
2023-05-09T11:02:05.613Z,16.44
2023-05-09T11:04:33.787Z,16.88
2023-05-09T11:07:01.082Z,17.26
2023-05-09T11:09:33.615Z,17.12
2023-05-09T11:12:16.369Z,17.38
2023-05-09T11:14:48.690Z,16.90
2023-05-09T11:17:21.959Z,16.07
2023-05-09T11:19:49.119Z,16.07
2023-05-09T11:22:32.357Z,16.00
2023-05-09T11:25:01.406Z,16.47
2023-05-09T11:27:29.579Z,16.43
2023-05-09T11:29:58.574Z,16.65
2023-05-09T11:32:32.009Z,16.37
2023-05-09T11:35:19.527Z,17.28
2023-05-09T11:37:51.231Z,17.19
2023-05-09T11:40:20.028Z,17.32
2023-05-09T11:42:50.010Z,17.64
2023-05-09T11:45:17.791Z,17.51
2023-05-09T11:47:47.276Z,17.05
2023-05-09T11:50:15.651Z,17.20
2023-05-09T11:52:43.418Z,17.33
2023-05-09T11:55:12.995Z,16.92
2023-05-09T11:57:41.955Z,16.80
2023-05-09T12:00:10.709Z,16.83
2023-05-09T12:02:38.573Z,17.53
2023-05-09T12:05:10.915Z,17.55
2023-05-09T12:07:39.533Z,17.15
2023-05-09T12:10:10.883Z,16.87
2023-05-09T12:12:49.440Z,17.29
2023-05-09T12:15:17.642Z,17.47
2023-05-09T12:17:47.129Z,18.42
2023-05-09T12:20:15.392Z,18.37
2023-05-09T12:22:43.810Z,18.64
2023-05-09T12:25:11.965Z,18.51
2023-05-09T12:27:40.791Z,18.08
2023-05-09T12:30:12.566Z,18.15
2023-05-09T12:32:40.595Z,17.65
2023-05-09T12:35:10.748Z,17.45
2023-05-09T12:37:38.558Z,17.80
2023-05-09T12:40:15.816Z,18.74
2023-05-09T12:42:44.650Z,19.17
2023-05-09T12:45:12.352Z,19.33
2023-05-09T12:47:41.721Z,19.23
2023-05-09T12:50:12.635Z,18.68
2023-05-09T12:52:50.575Z,19.21
2023-05-09T12:55:28.761Z,19.35
2023-05-09T12:58:00.052Z,18.73
2023-05-09T13:00:28.279Z,18.17
2023-05-09T13:02:55.826Z,17.81
2023-05-09T13:05:23.332Z,17.55
2023-05-09T13:07:52.536Z,17.49
2023-05-09T13:10:28.920Z,17.89
2023-05-09T13:12:59.859Z,18.18
2023-05-09T13:15:29.692Z,17.94
2023-05-09T13:17:57.662Z,17.66
2023-05-09T13:20:24.696Z,18.27
2023-05-09T13:22:51.852Z,18.68
2023-05-09T13:25:20.349Z,18.65
2023-05-09T13:27:47.439Z,18.27
2023-05-09T13:30:15.797Z,18.23
2023-05-09T13:32:43.701Z,18.65
2023-05-09T13:35:11.275Z,19.09
2023-05-09T13:37:39.025Z,19.62
2023-05-09T13:40:07.507Z,19.74
2023-05-09T13:42:35.958Z,20.35
2023-05-09T13:45:04.329Z,20.42
2023-05-09T13:47:31.876Z,20.47
2023-05-09T13:49:58.995Z,19.78
2023-05-09T13:52:26.108Z,19.36
2023-05-09T13:54:53.514Z,18.96
2023-05-09T13:57:21.081Z,19.74
2023-05-09T13:59:48.626Z,20.19
2023-05-09T14:02:16.750Z,20.51
2023-05-09T14:04:44.100Z,19.40
2023-05-09T14:07:13.601Z,18.60
2023-05-09T14:09:40.760Z,18.69
2023-05-09T14:12:08.279Z,17.93
2023-05-09T14:14:35.688Z,17.89
2023-05-09T14:17:02.833Z,17.52
2023-05-09T14:19:30.670Z,17.51
2023-05-09T14:21:58.710Z,17.55
2023-05-09T14:24:26.217Z,17.69
2023-05-09T14:26:53.576Z,18.52
2023-05-09T14:29:21.652Z,18.39
2023-05-09T14:31:48.895Z,18.63
2023-05-09T14:34:16.650Z,19.19
2023-05-09T14:36:43.728Z,19.65
2023-05-09T14:39:10.942Z,19.19
2023-05-09T14:41:38.453Z,18.49
2023-05-09T14:44:05.569Z,18.81
2023-05-09T14:46:33.415Z,19.06
2023-05-09T14:49:04.260Z,20.13
2023-05-09T14:51:31.803Z,20.61
2023-05-09T14:53:59.334Z,20.25
2023-05-09T14:56:26.938Z,19.78
2023-05-09T14:58:54.205Z,19.21
2023-05-09T15:01:21.362Z,18.56
2023-05-09T15:03:48.887Z,18.84
2023-05-09T15:06:16.564Z,18.71
2023-05-09T15:08:43.607Z,19.15
2023-05-09T15:11:10.982Z,19.78
2023-05-09T15:13:38.259Z,19.55
2023-05-09T15:16:05.503Z,19.75
2023-05-09T15:18:34.396Z,20.17
2023-05-09T15:21:01.378Z,20.68
2023-05-09T15:23:28.533Z,20.38
2023-05-09T15:25:55.879Z,20.11
2023-05-09T15:28:23.138Z,20.82
2023-05-09T15:30:50.125Z,20.78
2023-05-09T15:33:17.691Z,20.28
2023-05-09T15:35:45.538Z,19.29
2023-05-09T15:38:13.333Z,19.05
2023-05-09T15:40:41.396Z,19.09
2023-05-09T15:43:08.666Z,18.47
2023-05-09T15:45:39.005Z,18.17
2023-05-09T15:48:06.904Z,17.94
2023-05-09T15:50:34.202Z,17.88
2023-05-09T15:53:01.266Z,17.64
2023-05-09T15:55:28.804Z,17.71
2023-05-09T15:57:56.733Z,17.77
2023-05-09T16:00:24.448Z,17.65
2023-05-09T16:02:51.874Z,17.47
2023-05-09T16:05:19.057Z,17.19
2023-05-09T16:07:47.065Z,16.94
2023-05-09T16:10:14.640Z,16.90
2023-05-09T16:12:41.956Z,16.92
2023-05-09T16:15:09.397Z,16.57
2023-05-09T16:17:37.964Z,16.64
2023-05-09T16:20:06.666Z,17.27
2023-05-09T16:22:33.848Z,17.57
2023-05-09T16:25:01.201Z,17.37
2023-05-09T16:27:28.250Z,17.46
2023-05-09T16:29:55.473Z,18.24
2023-05-09T16:32:22.860Z,18.69
2023-05-09T16:34:49.901Z,19.35
2023-05-09T16:37:18.868Z,19.59
2023-05-09T16:39:46.423Z,19.89
2023-05-09T16:42:13.626Z,19.12
2023-05-09T16:44:41.399Z,18.83
2023-05-09T16:47:09.053Z,18.05
2023-05-09T16:49:36.454Z,17.55
2023-05-09T16:52:03.568Z,17.34
2023-05-09T16:54:31.685Z,17.21
2023-05-09T16:56:58.708Z,17.39
2023-05-09T16:59:27.169Z,17.52
2023-05-09T17:01:57.570Z,17.07
2023-05-09T17:04:25.370Z,16.66
2023-05-09T17:06:53.287Z,16.41
2023-05-09T17:09:20.892Z,16.16
2023-05-09T17:11:48.875Z,16.06
2023-05-09T17:14:15.942Z,15.99
2023-05-09T17:16:43.338Z,15.76
2023-05-09T17:19:10.634Z,15.86
2023-05-09T17:21:41.441Z,15.87
2023-05-09T17:24:09.633Z,15.78
2023-05-09T17:26:38.683Z,15.65
2023-05-09T17:29:06.014Z,15.57
2023-05-09T17:31:33.486Z,15.43
2023-05-09T17:34:01.417Z,15.35
2023-05-09T17:36:28.651Z,15.21
2023-05-09T17:38:56.322Z,14.99
2023-05-09T17:41:23.569Z,14.83
2023-05-09T17:43:51.947Z,14.81
2023-05-09T17:46:19.401Z,14.72
2023-05-09T17:48:47.838Z,14.64
2023-05-09T17:51:15.077Z,14.57
2023-05-09T17:53:45.361Z,14.36
2023-05-09T17:56:12.580Z,14.32
2023-05-09T17:58:39.676Z,14.17
2023-05-09T18:01:07.187Z,14.08
2023-05-09T18:03:34.777Z,14.05
2023-05-09T18:06:02.151Z,13.88
2023-05-09T18:08:29.818Z,13.81
2023-05-09T18:10:57.939Z,13.75
2023-05-09T18:13:25.206Z,13.65
2023-05-09T18:15:54.988Z,13.51
2023-05-09T18:18:23.086Z,13.43
2023-05-09T18:20:50.425Z,13.42
2023-05-09T18:23:17.741Z,13.31
2023-05-09T18:25:45.307Z,13.24
2023-05-09T18:28:12.503Z,13.17
2023-05-09T18:30:39.716Z,13.06
2023-05-09T18:33:07.296Z,13.11
2023-05-09T18:35:35.700Z,13.09
2023-05-09T18:38:03.307Z,13.06
2023-05-09T18:40:30.896Z,13.03
2023-05-09T18:42:59.663Z,12.98
2023-05-09T18:45:27.256Z,12.96
2023-05-09T18:47:57.785Z,12.94
2023-05-09T18:50:24.925Z,12.95
2023-05-09T18:52:52.186Z,12.94
2023-05-09T18:55:21.884Z,12.88
2023-05-09T18:57:49.214Z,12.88
2023-05-09T19:00:16.971Z,12.84
2023-05-09T19:02:44.614Z,12.72
2023-05-09T19:05:11.786Z,12.65
2023-05-09T19:07:39.083Z,12.63
2023-05-09T19:10:08.295Z,12.61
2023-05-09T19:12:35.413Z,12.59
2023-05-09T19:15:03.104Z,12.56
2023-05-09T19:17:30.659Z,12.56
2023-05-09T19:19:57.765Z,12.54
2023-05-09T19:22:24.768Z,12.51
2023-05-09T19:24:52.331Z,12.52
2023-05-09T19:27:19.569Z,12.55
2023-05-09T19:29:49.314Z,12.54
2023-05-09T19:32:18.057Z,12.43
2023-05-09T19:34:45.141Z,12.45
2023-05-09T19:37:12.192Z,12.44
2023-05-09T19:39:39.450Z,12.41
2023-05-09T19:42:06.772Z,12.30
2023-05-09T19:44:33.883Z,12.31
2023-05-09T19:47:05.207Z,12.23
2023-05-09T19:49:34.775Z,12.23
2023-05-09T19:52:02.012Z,12.22
2023-05-09T19:54:28.995Z,12.17
2023-05-09T19:56:56.029Z,12.19
2023-05-09T19:59:23.376Z,12.15
2023-05-09T20:01:50.787Z,12.14
2023-05-09T20:04:21.817Z,12.20
2023-05-09T20:06:49.049Z,12.16
2023-05-09T20:09:20.779Z,12.11
2023-05-09T20:11:48.339Z,12.10
2023-05-09T20:14:15.500Z,12.05
2023-05-09T20:16:43.833Z,12.03
2023-05-09T20:19:14.632Z,12.02
2023-05-09T20:21:41.780Z,11.95
2023-05-09T20:24:08.989Z,12.01
2023-05-09T20:26:36.332Z,11.95
2023-05-09T20:29:03.686Z,11.88
2023-05-09T20:31:31.405Z,11.85
2023-05-09T20:33:59.050Z,11.82
2023-05-09T20:36:27.743Z,11.75
2023-05-09T20:38:56.445Z,11.71
2023-05-09T20:41:24.149Z,11.66
2023-05-09T20:43:51.226Z,11.71
2023-05-09T20:46:18.383Z,11.71
2023-05-09T20:48:48.088Z,11.63
2023-05-09T20:51:15.332Z,11.57
2023-05-09T20:53:42.314Z,11.60
2023-05-09T20:56:09.649Z,11.61
2023-05-09T20:58:36.779Z,11.57
2023-05-09T21:01:03.996Z,11.61
2023-05-09T21:03:31.407Z,11.53
2023-05-09T21:05:58.963Z,11.46
2023-05-09T21:08:26.389Z,11.38
2023-05-09T21:10:54.396Z,11.36
2023-05-09T21:13:21.525Z,11.33
2023-05-09T21:15:50.451Z,11.26
2023-05-09T21:18:18.408Z,11.22
2023-05-09T21:20:45.982Z,11.22
2023-05-09T21:23:13.088Z,11.16
2023-05-09T21:25:40.487Z,11.13
2023-05-09T21:28:07.642Z,11.13
2023-05-09T21:30:34.667Z,11.18
2023-05-09T21:33:03.804Z,11.24
2023-05-09T21:35:31.193Z,11.26
2023-05-09T21:37:58.276Z,11.23
2023-05-09T21:40:25.625Z,11.15
2023-05-09T21:42:54.065Z,11.18
2023-05-09T21:45:21.193Z,11.12
2023-05-09T21:47:48.912Z,11.08
2023-05-09T21:50:16.247Z,11.09
2023-05-09T21:52:43.551Z,11.00
2023-05-09T21:55:11.168Z,10.99
2023-05-09T21:57:38.249Z,10.93
2023-05-09T22:00:06.824Z,10.86
2023-05-09T22:02:40.345Z,10.95
2023-05-09T22:05:09.284Z,11.00
2023-05-09T22:07:36.867Z,11.03
2023-05-09T22:10:04.636Z,11.02
2023-05-09T22:12:32.025Z,11.10
2023-05-09T22:14:59.105Z,11.15
2023-05-09T22:17:26.343Z,11.11
2023-05-09T22:19:53.713Z,11.13
2023-05-09T22:22:21.414Z,11.21
2023-05-09T22:24:49.766Z,11.15
2023-05-09T22:27:17.214Z,11.19
2023-05-09T22:29:44.752Z,11.08
2023-05-09T22:32:11.915Z,11.12
2023-05-09T22:34:39.835Z,11.06
2023-05-09T22:37:07.080Z,11.06
2023-05-09T22:39:34.163Z,10.98
2023-05-09T22:42:03.945Z,11.03
2023-05-09T22:44:32.450Z,10.94
2023-05-09T22:46:59.835Z,10.96
2023-05-09T22:49:27.379Z,10.97
2023-05-09T22:51:54.433Z,10.97
2023-05-09T22:54:22.220Z,10.85
2023-05-09T22:56:49.649Z,10.87
2023-05-09T22:59:16.774Z,10.80
2023-05-09T23:01:43.979Z,10.79
2023-05-09T23:04:11.482Z,10.77
2023-05-09T23:06:38.585Z,10.81
2023-05-09T23:09:05.603Z,10.72
2023-05-09T23:11:32.973Z,10.70
2023-05-09T23:14:00.105Z,10.63
2023-05-09T23:16:27.188Z,10.58
2023-05-09T23:18:54.622Z,10.50
2023-05-09T23:21:21.710Z,10.47
2023-05-09T23:23:48.832Z,10.38
2023-05-09T23:26:16.205Z,10.33
2023-05-09T23:28:43.313Z,10.28
2023-05-09T23:31:10.674Z,10.21
2023-05-09T23:33:38.288Z,10.17
2023-05-09T23:36:06.212Z,10.07
2023-05-09T23:38:33.273Z,9.94
2023-05-09T23:41:01.314Z,9.95
2023-05-09T23:43:28.934Z,9.93
2023-05-09T23:45:56.808Z,9.87
2023-05-09T23:48:24.275Z,9.74
2023-05-09T23:50:51.849Z,9.66
2023-05-09T23:53:18.960Z,9.56
2023-05-09T23:55:46.295Z,9.59
2023-05-09T23:58:13.376Z,9.61
